Time,TemperatureF,DewpointF,PressureIn,WindDirection,WindDirectionDegrees,WindSpeedMPH,WindSpeedGustMPH,Humidity,HourlyPrecipIn,Conditions,Clouds,dailyrainin,SoftwareType,DateUTC
2013-01-18 00:02:00,31.7,9.6,30.27,West,267,0.0,0.0,39,0.00,,,0.00,VWS V14.01,2013-01-18 07:02:00,
2013-01-18 00:07:00,31.7,9.6,30.28,West,267,0.0,0.0,39,0.00,,,0.00,VWS V14.01,2013-01-18 07:07:00,
2013-01-18 00:12:00,31.7,9.6,30.27,West,267,0.0,0.0,39,0.00,,,0.00,VWS V14.01,2013-01-18 07:12:00,
2013-01-18 00:17:00,31.7,9.6,30.26,West,267,0.0,0.0,39,0.00,,,0.00,VWS V14.01,2013-01-18 07:17:00,
2013-01-18 00:22:00,31.7,9.6,30.27,West,267,0.0,0.0,39,0.00,,,0.00,VWS V14.01,2013-01-18 07:22:00,
2013-01-18 00:27:00,31.7,9.6,30.26,West,267,0.0,0.0,39,0.00,,,0.00,VWS V14.01,2013-01-18 07:27:00,
2013-01-18 00:32:00,31.7,9.6,30.26,West,267,0.0,0.0,39,0.00,,,0.00,VWS V14.01,2013-01-18 07:32:00,
2013-01-18 00:37:00,31.7,9.6,30.26,West,267,0.0,0.0,39,0.00,,,0.00,VWS V14.01,2013-01-18 07:37:00,
2013-01-18 00:42:00,31.7,9.6,30.25,West,267,0.0,0.0,39,0.00,,,0.00,VWS V14.01,2013-01-18 07:42:00,
2013-01-18 00:47:00,31.7,9.6,30.25,West,267,0.0,0.0,39,0.00,,,0.00,VWS V14.01,2013-01-18 07:47:00,
2013-01-18 00:52:00,31.7,9.6,30.24,West,267,0.0,0.0,39,0.00,,,0.00,VWS V14.01,2013-01-18 07:52:00,
2013-01-18 00:57:00,31.7,9.6,30.25,West,267,0.0,0.0,39,0.00,,,0.00,VWS V14.01,2013-01-18 07:57:00,
2013-01-18 01:02:00,29.0,10.3,30.24,West,267,0.0,0.0,45,0.00,,,0.00,VWS V14.01,2013-01-18 08:02:00,
2013-01-18 01:07:00,28.4,8.8,30.24,West,267,2.0,2.0,43,0.00,,,0.00,VWS V14.01,2013-01-18 08:07:00,
2013-01-18 01:12:00,28.9,10.2,30.24,West,267,1.0,2.0,45,0.00,,,0.00,VWS V14.01,2013-01-18 08:12:00,
2013-01-18 01:17:00,28.4,11.2,30.25,NNE,17,0.0,0.0,48,0.00,,,0.00,VWS V14.01,2013-01-18 08:17:00,
2013-01-18 01:22:00,28.0,11.3,30.25,NNE,14,2.0,3.0,49,0.00,,,0.00,VWS V14.01,2013-01-18 08:22:00,
2013-01-18 01:27:00,28.4,12.1,30.25,North,355,2.0,4.0,50,0.00,,,0.00,VWS V14.01,2013-01-18 08:27:00,
2013-01-18 01:32:00,29.1,11.9,30.25,SSW,211,2.0,5.0,48,0.00,,,0.00,VWS V14.01,2013-01-18 08:32:00,
2013-01-18 01:37:00,29.7,11.5,30.25,SSW,211,3.0,3.0,46,0.00,,,0.00,VWS V14.01,2013-01-18 08:37:00,
2013-01-18 01:42:00,30.1,11.3,30.25,SSW,211,0.0,0.0,45,0.00,,,0.00,VWS V14.01,2013-01-18 08:42:00,
2013-01-18 01:47:00,29.9,10.6,30.25,SSW,211,4.0,5.0,44,0.00,,,0.00,VWS V14.01,2013-01-18 08:47:00,
2013-01-18 01:52:00,30.7,10.3,30.25,SSW,211,4.0,5.0,42,0.00,,,0.00,VWS V14.01,2013-01-18 08:52:00,
2013-01-18 01:57:00,30.7,9.8,30.25,SSW,211,0.0,2.0,41,0.00,,,0.00,VWS V14.01,2013-01-18 08:57:00,
2013-01-18 02:02:00,30.3,10.0,30.25,SW,231,2.0,4.0,42,0.00,,,0.00,VWS V14.01,2013-01-18 09:02:00,
2013-01-18 02:07:00,29.7,10.0,30.25,SW,231,0.0,2.0,43,0.00,,,0.00,VWS V14.01,2013-01-18 09:07:00,
2013-01-18 02:12:00,29.3,9.6,30.25,SW,231,1.0,4.0,43,0.00,,,0.00,VWS V14.01,2013-01-18 09:12:00,
2013-01-18 02:17:00,29.6,8.8,30.24,SW,231,4.0,5.0,41,0.00,,,0.00,VWS V14.01,2013-01-18 09:17:00,
2013-01-18 02:22:00,31.3,8.1,30.24,SW,231,5.0,5.0,37,0.00,,,0.00,VWS V14.01,2013-01-18 09:22:00,
2013-01-18 02:27:00,32.4,8.4,30.24,SW,231,2.0,4.0,36,0.00,,,0.00,VWS V14.01,2013-01-18 09:27:00,
2013-01-18 02:32:00,32.4,8.4,30.24,SW,231,2.0,4.0,36,0.00,,,0.00,VWS V14.01,2013-01-18 09:32:00,
2013-01-18 02:37:00,30.4,10.1,30.24,NNW,346,0.0,0.0,42,0.00,,,0.00,VWS V14.01,2013-01-18 09:37:00,
2013-01-18 02:42:00,29.2,9.5,30.24,NNW,346,0.0,0.0,43,0.00,,,0.00,VWS V14.01,2013-01-18 09:42:00,
2013-01-18 02:47:00,29.3,6.9,30.24,NNW,332,1.0,4.0,38,0.00,,,0.00,VWS V14.01,2013-01-18 09:47:00,
2013-01-18 02:52:00,32.0,9.3,30.24,NNW,332,1.0,2.0,38,0.00,,,0.00,VWS V14.01,2013-01-18 09:52:00,
2013-01-18 02:57:00,30.4,10.1,30.24,NNW,332,0.0,0.0,42,0.00,,,0.00,VWS V14.01,2013-01-18 09:57:00,
2013-01-18 03:02:00,29.0,9.8,30.24,NNW,332,0.0,0.0,44,0.00,,,0.00,VWS V14.01,2013-01-18 10:02:00,
2013-01-18 03:07:00,28.1,10.0,30.23,NNW,332,3.0,4.0,46,0.00,,,0.00,VWS V14.01,2013-01-18 10:07:00,
2013-01-18 03:12:00,28.5,9.4,30.23,NNW,332,1.0,1.0,44,0.00,,,0.00,VWS V14.01,2013-01-18 10:12:00,
2013-01-18 03:17:00,28.5,9.4,30.23,NNW,332,3.0,3.0,44,0.00,,,0.00,VWS V14.01,2013-01-18 10:17:00,
2013-01-18 03:22:00,30.4,7.3,30.23,NW,321,5.0,5.0,37,0.00,,,0.00,VWS V14.01,2013-01-18 10:22:00,
2013-01-18 03:27:00,30.3,8.9,30.24,NNE,21,4.0,5.0,40,0.00,,,0.00,VWS V14.01,2013-01-18 10:27:00,
2013-01-18 03:32:00,28.4,9.8,30.24,NNE,21,2.0,5.0,45,0.00,,,0.00,VWS V14.01,2013-01-18 10:32:00,
2013-01-18 03:37:00,27.6,10.0,30.23,North,10,0.0,1.0,47,0.00,,,0.00,VWS V14.01,2013-01-18 10:37:00,
2013-01-18 03:42:00,27.9,9.8,30.23,North,10,2.0,3.0,46,0.00,,,0.00,VWS V14.01,2013-01-18 10:42:00,
2013-01-18 03:47:00,29.3,9.1,30.23,North,10,2.0,4.0,42,0.00,,,0.00,VWS V14.01,2013-01-18 10:47:00,
2013-01-18 03:52:00,30.1,9.3,30.23,North,11,1.0,3.0,41,0.00,,,0.00,VWS V14.01,2013-01-18 10:52:00,
2013-01-18 03:57:00,29.7,8.9,30.23,North,11,1.0,2.0,41,0.00,,,0.00,VWS V14.01,2013-01-18 10:57:00,
2013-01-18 04:02:00,29.5,9.2,30.23,South,180,2.0,5.0,42,0.00,,,0.00,VWS V14.01,2013-01-18 11:02:00,
2013-01-18 04:07:00,29.0,8.8,30.23,South,180,0.0,0.0,42,0.00,,,0.00,VWS V14.01,2013-01-18 11:07:00,
2013-01-18 04:12:00,28.8,8.6,30.23,South,180,0.0,0.0,42,0.00,,,0.00,VWS V14.01,2013-01-18 11:12:00,
2013-01-18 04:17:00,28.8,8.6,30.23,South,180,2.0,2.0,42,0.00,,,0.00,VWS V14.01,2013-01-18 11:17:00,
2013-01-18 04:22:00,29.0,8.8,30.23,South,180,2.0,4.0,42,0.00,,,0.00,VWS V14.01,2013-01-18 11:22:00,
2013-01-18 04:27:00,29.2,9.0,30.22,South,180,2.0,4.0,42,0.00,,,0.00,VWS V14.01,2013-01-18 11:27:00,
2013-01-18 04:32:00,29.0,8.8,30.22,South,180,2.0,2.0,42,0.00,,,0.00,VWS V14.01,2013-01-18 11:32:00,
2013-01-18 04:37:00,28.7,8.5,30.22,South,180,0.0,1.0,42,0.00,,,0.00,VWS V14.01,2013-01-18 11:37:00,
2013-01-18 04:42:00,28.5,8.3,30.22,South,180,0.0,0.0,42,0.00,,,0.00,VWS V14.01,2013-01-18 11:42:00,
2013-01-18 04:47:00,28.8,8.1,30.22,South,180,0.0,0.0,41,0.00,,,0.00,VWS V14.01,2013-01-18 11:47:00,
2013-01-18 04:52:00,29.5,7.6,30.21,South,180,0.0,0.0,39,0.00,,,0.00,VWS V14.01,2013-01-18 11:52:00,
2013-01-18 04:57:00,30.9,7.7,30.21,South,180,1.0,4.0,37,0.00,,,0.00,VWS V14.01,2013-01-18 11:57:00,
2013-01-18 05:02:00,30.6,6.8,30.21,South,180,2.0,4.0,36,0.00,,,0.00,VWS V14.01,2013-01-18 12:02:00,
2013-01-18 05:07:00,30.9,7.1,30.21,South,180,0.0,0.0,36,0.00,,,0.00,VWS V14.01,2013-01-18 12:07:00,
2013-01-18 05:12:00,30.7,8.1,30.20,South,180,0.0,0.0,38,0.00,,,0.00,VWS V14.01,2013-01-18 12:12:00,
2013-01-18 05:17:00,30.6,7.4,30.21,South,180,5.0,5.0,37,0.00,,,0.00,VWS V14.01,2013-01-18 12:17:00,
2013-01-18 05:22:00,30.6,9.2,30.21,South,180,2.0,4.0,40,0.00,,,0.00,VWS V14.01,2013-01-18 12:22:00,
2013-01-18 05:27:00,31.3,6.2,30.21,South,180,0.0,0.0,34,0.00,,,0.00,VWS V14.01,2013-01-18 12:27:00,
2013-01-18 05:32:00,31.2,7.4,30.20,South,180,2.0,3.0,36,0.00,,,0.00,VWS V14.01,2013-01-18 12:32:00,
2013-01-18 05:37:00,29.8,7.3,30.20,South,180,1.0,2.0,38,0.00,,,0.00,VWS V14.01,2013-01-18 12:37:00,
2013-01-18 05:42:00,29.4,5.8,30.20,South,180,0.0,2.0,36,0.00,,,0.00,VWS V14.01,2013-01-18 12:42:00,
2013-01-18 05:47:00,31.4,5.6,30.20,South,180,0.0,1.0,33,0.00,,,0.00,VWS V14.01,2013-01-18 12:47:00,
2013-01-18 05:52:00,32.8,4.8,30.20,South,180,1.0,2.0,30,0.00,,,0.00,VWS V14.01,2013-01-18 12:52:00,
2013-01-18 05:57:00,33.7,5.6,30.20,South,180,0.0,0.0,30,0.00,,,0.00,VWS V14.01,2013-01-18 12:57:00,
2013-01-18 06:02:00,33.0,6.4,30.20,South,180,0.0,1.0,32,0.00,,,0.00,VWS V14.01,2013-01-18 13:02:00,
2013-01-18 06:07:00,31.7,6.6,30.20,South,180,2.0,2.0,34,0.00,,,0.00,VWS V14.01,2013-01-18 13:07:00,
2013-01-18 06:12:00,32.6,3.1,30.20,South,180,1.0,3.0,28,0.00,,,0.00,VWS V14.01,2013-01-18 13:12:00,
2013-01-18 06:17:00,34.0,5.8,30.20,South,180,1.0,2.0,30,0.00,,,0.00,VWS V14.01,2013-01-18 13:17:00,
2013-01-18 06:22:00,32.7,4.7,30.20,South,180,0.0,0.0,30,0.00,,,0.00,VWS V14.01,2013-01-18 13:22:00,
2013-01-18 06:27:00,32.2,2.8,30.20,South,180,0.0,1.0,28,0.00,,,0.00,VWS V14.01,2013-01-18 13:27:00,
2013-01-18 06:32:00,33.4,5.3,30.20,South,180,1.0,4.0,30,0.00,,,0.00,VWS V14.01,2013-01-18 13:32:00,
2013-01-18 06:37:00,31.2,7.4,30.20,South,180,0.0,0.0,36,0.00,,,0.00,VWS V14.01,2013-01-18 13:37:00,
2013-01-18 06:42:00,29.6,6.5,30.20,South,180,1.0,2.0,37,0.00,,,0.00,VWS V14.01,2013-01-18 13:42:00,
2013-01-18 06:47:00,29.0,6.0,30.20,South,180,4.0,4.0,37,0.00,,,0.00,VWS V14.01,2013-01-18 13:47:00,
2013-01-18 06:52:00,29.7,6.0,30.20,South,181,4.0,4.0,36,0.00,,,0.00,VWS V14.01,2013-01-18 13:52:00,
2013-01-18 06:57:00,31.0,5.3,30.20,South,182,2.0,4.0,33,0.00,,,0.00,VWS V14.01,2013-01-18 13:57:00,
2013-01-18 07:02:00,32.5,5.2,30.20,South,182,5.0,5.0,31,0.00,,,0.00,VWS V14.01,2013-01-18 14:02:00,
2013-01-18 07:07:00,33.5,4.7,30.20,South,182,0.0,0.0,29,0.00,,,0.00,VWS V14.01,2013-01-18 14:07:00,
2013-01-18 07:12:00,33.9,5.0,30.20,South,182,0.0,2.0,29,0.00,,,0.00,VWS V14.01,2013-01-18 14:12:00,
2013-01-18 07:17:00,34.0,5.1,30.21,South,182,0.0,1.0,29,0.00,,,0.00,VWS V14.01,2013-01-18 14:17:00,
2013-01-18 07:22:00,33.9,4.2,30.21,South,182,1.0,1.0,28,0.00,,,0.00,VWS V14.01,2013-01-18 14:22:00,
2013-01-18 07:27:00,34.2,3.7,30.21,South,182,0.0,1.0,27,0.00,,,0.00,VWS V14.01,2013-01-18 14:27:00,
2013-01-18 07:32:00,34.0,4.3,30.21,South,182,0.0,1.0,28,0.00,,,0.00,VWS V14.01,2013-01-18 14:32:00,
2013-01-18 07:37:00,33.8,4.9,30.21,South,182,0.0,0.0,29,0.00,,,0.00,VWS V14.01,2013-01-18 14:37:00,
2013-01-18 07:42:00,33.9,5.8,30.22,South,182,2.0,3.0,30,0.00,,,0.00,VWS V14.01,2013-01-18 14:42:00,
2013-01-18 07:47:00,33.6,4.8,30.22,South,182,0.0,0.0,29,0.00,,,0.00,VWS V14.01,2013-01-18 14:47:00,
2013-01-18 07:52:00,33.9,6.5,30.22,South,182,0.0,0.0,31,0.00,,,0.00,VWS V14.01,2013-01-18 14:52:00,
2013-01-18 07:57:00,33.3,5.9,30.22,South,182,0.0,0.0,31,0.00,,,0.00,VWS V14.01,2013-01-18 14:57:00,
2013-01-18 08:02:00,33.3,6.6,30.22,South,182,2.0,2.0,32,0.00,,,0.00,VWS V14.01,2013-01-18 15:02:00,
2013-01-18 08:07:00,33.3,7.3,30.22,South,182,0.0,0.0,33,0.00,,,0.00,VWS V14.01,2013-01-18 15:07:00,
2013-01-18 08:12:00,33.8,7.8,30.22,South,182,0.0,2.0,33,0.00,,,0.00,VWS V14.01,2013-01-18 15:12:00,
2013-01-18 08:17:00,33.4,8.1,30.22,South,182,3.0,4.0,34,0.00,,,0.00,VWS V14.01,2013-01-18 15:17:00,
2013-01-18 08:22:00,33.4,8.7,30.22,South,182,0.0,0.0,35,0.00,,,0.00,VWS V14.01,2013-01-18 15:22:00,
2013-01-18 08:27:00,34.4,8.9,30.22,South,182,0.0,0.0,34,0.00,,,0.00,VWS V14.01,2013-01-18 15:27:00,
2013-01-18 08:32:00,35.4,9.2,30.23,South,182,0.0,2.0,33,0.00,,,0.00,VWS V14.01,2013-01-18 15:32:00,
2013-01-18 08:37:00,35.8,8.1,30.23,South,182,0.0,2.0,31,0.00,,,0.00,VWS V14.01,2013-01-18 15:37:00,
2013-01-18 08:42:00,36.1,9.1,30.23,South,182,4.0,4.0,32,0.00,,,0.00,VWS V14.01,2013-01-18 15:42:00,
2013-01-18 08:46:00,36.1,9.1,30.23,South,182,2.0,2.0,32,0.00,,,0.00,VWS V14.01,2013-01-18 15:46:00,
2013-01-18 08:51:00,36.1,8.4,30.23,South,182,5.0,6.0,31,0.00,,,0.00,VWS V14.01,2013-01-18 15:51:00,
2013-01-18 08:56:00,35.7,8.8,30.23,South,182,3.0,4.0,32,0.00,,,0.00,VWS V14.01,2013-01-18 15:56:00,
2013-01-18 09:01:00,35.8,8.8,30.23,South,182,1.0,2.0,32,0.00,,,0.00,VWS V14.01,2013-01-18 16:01:00,
2013-01-18 09:06:00,36.2,9.2,30.23,South,182,1.0,2.0,32,0.00,,,0.00,VWS V14.01,2013-01-18 16:06:00,
2013-01-18 09:11:00,36.7,8.9,30.23,South,182,4.0,4.0,31,0.00,,,0.00,VWS V14.01,2013-01-18 16:11:00,
2013-01-18 09:16:00,37.7,9.1,30.23,South,182,0.0,2.0,30,0.00,,,0.00,VWS V14.01,2013-01-18 16:16:00,
2013-01-18 09:21:00,38.0,9.3,30.23,South,182,1.0,2.0,30,0.00,,,0.00,VWS V14.01,2013-01-18 16:21:00,
2013-01-18 09:26:00,38.4,9.7,30.23,South,182,2.0,2.0,30,0.00,,,0.00,VWS V14.01,2013-01-18 16:26:00,
2013-01-18 09:31:00,39.4,9.0,30.23,South,182,4.0,4.0,28,0.00,,,0.00,VWS V14.01,2013-01-18 16:31:00,
2013-01-18 09:36:00,39.8,9.4,30.23,South,182,0.0,1.0,28,0.00,,,0.00,VWS V14.01,2013-01-18 16:36:00,
2013-01-18 09:41:00,40.4,9.1,30.23,South,182,1.0,2.0,27,0.00,,,0.00,VWS V14.01,2013-01-18 16:41:00,
2013-01-18 09:46:00,41.0,8.8,30.23,South,182,4.0,4.0,26,0.00,,,0.00,VWS V14.01,2013-01-18 16:46:00,
2013-01-18 09:51:00,41.6,9.3,30.23,South,182,2.0,2.0,26,0.00,,,0.00,VWS V14.01,2013-01-18 16:51:00,
2013-01-18 09:56:00,42.4,9.1,30.23,South,182,5.0,6.0,25,0.00,,,0.00,VWS V14.01,2013-01-18 16:56:00,
2013-01-18 10:01:00,43.1,9.7,30.23,South,182,2.0,2.0,25,0.00,,,0.00,VWS V14.01,2013-01-18 17:01:00,
2013-01-18 10:06:00,43.8,9.4,30.23,South,182,2.0,4.0,24,0.00,,,0.00,VWS V14.01,2013-01-18 17:06:00,
2013-01-18 10:11:00,44.3,9.8,30.23,South,182,1.0,2.0,24,0.00,,,0.00,VWS V14.01,2013-01-18 17:11:00,
2013-01-18 10:16:00,45.1,9.5,30.23,South,182,5.0,5.0,23,0.00,,,0.00,VWS V14.01,2013-01-18 17:16:00,
2013-01-18 10:21:00,45.6,9.9,30.23,South,187,4.0,4.0,23,0.00,,,0.00,VWS V14.01,2013-01-18 17:21:00,
2013-01-18 10:26:00,46.1,9.4,30.23,South,187,0.0,2.0,22,0.00,,,0.00,VWS V14.01,2013-01-18 17:26:00,
2013-01-18 10:31:00,46.5,8.7,30.22,South,187,2.0,2.0,21,0.00,,,0.00,VWS V14.01,2013-01-18 17:31:00,
2013-01-18 10:36:00,46.8,10.0,30.22,South,187,4.0,4.0,22,0.00,,,0.00,VWS V14.01,2013-01-18 17:36:00,
2013-01-18 10:41:00,47.3,9.4,30.22,South,187,0.0,1.0,21,0.00,,,0.00,VWS V14.01,2013-01-18 17:41:00,
2013-01-18 10:46:00,48.0,8.9,30.21,South,187,4.0,4.0,20,0.00,,,0.00,VWS V14.01,2013-01-18 17:46:00,
2013-01-18 10:51:00,48.5,9.3,30.21,South,187,1.0,6.0,20,0.00,,,0.00,VWS V14.01,2013-01-18 17:51:00,
2013-01-18 10:56:00,49.2,8.7,30.21,South,187,3.0,4.0,19,0.00,,,0.00,VWS V14.01,2013-01-18 17:56:00,
2013-01-18 11:01:00,49.3,8.8,30.20,South,187,1.0,3.0,19,0.00,,,0.00,VWS V14.01,2013-01-18 18:01:00,
2013-01-18 11:06:00,49.8,8.0,30.20,ESE,111,5.0,5.0,18,0.00,,,0.00,VWS V14.01,2013-01-18 18:06:00,
2013-01-18 11:11:00,50.1,7.0,30.19,ESE,123,4.0,4.0,17,0.00,,,0.00,VWS V14.01,2013-01-18 18:11:00,
2013-01-18 11:16:00,50.6,7.4,30.19,SE,137,2.0,5.0,17,0.00,,,0.00,VWS V14.01,2013-01-18 18:16:00,
2013-01-18 11:21:00,50.9,7.7,30.18,South,176,5.0,6.0,17,0.00,,,0.00,VWS V14.01,2013-01-18 18:21:00,
2013-01-18 11:26:00,51.2,6.6,30.18,SSE,166,5.0,5.0,16,0.00,,,0.00,VWS V14.01,2013-01-18 18:26:00,
2013-01-18 11:31:00,51.4,6.7,30.17,South,188,5.0,5.0,16,0.00,,,0.00,VWS V14.01,2013-01-18 18:31:00,
2013-01-18 11:36:00,51.7,7.0,30.17,ESE,121,5.0,5.0,16,0.00,,,0.00,VWS V14.01,2013-01-18 18:36:00,
2013-01-18 11:41:00,52.1,5.9,30.16,SE,124,5.0,7.0,15,0.00,,,0.00,VWS V14.01,2013-01-18 18:41:00,
2013-01-18 11:46:00,52.4,6.1,30.16,SE,131,4.0,6.0,15,0.00,,,0.00,VWS V14.01,2013-01-18 18:46:00,
2013-01-18 11:51:00,52.4,6.1,30.15,SE,128,5.0,6.0,15,0.00,,,0.00,VWS V14.01,2013-01-18 18:51:00,
2013-01-18 11:56:00,52.7,6.4,30.15,ESE,116,6.0,6.0,15,0.00,,,0.00,VWS V14.01,2013-01-18 18:56:00,
2013-01-18 12:01:00,53.0,5.1,30.14,SSE,153,1.0,2.0,14,0.00,,,0.00,VWS V14.01,2013-01-18 19:01:00,
2013-01-18 12:06:00,53.5,5.5,30.14,ESE,119,5.0,6.0,14,0.00,,,0.00,VWS V14.01,2013-01-18 19:06:00,
2013-01-18 12:11:00,54.0,4.3,30.14,ESE,104,5.0,6.0,13,0.00,,,0.00,VWS V14.01,2013-01-18 19:11:00,
2013-01-18 12:16:00,54.2,4.4,30.13,South,171,6.0,6.0,13,0.00,,,0.00,VWS V14.01,2013-01-18 19:16:00,
2013-01-18 12:21:00,54.6,4.8,30.13,ESE,113,2.0,4.0,13,0.00,,,0.00,VWS V14.01,2013-01-18 19:21:00,
2013-01-18 12:26:00,54.5,4.7,30.13,SSE,149,5.0,7.0,13,0.00,,,0.00,VWS V14.01,2013-01-18 19:26:00,
2013-01-18 12:31:00,54.6,4.8,30.12,SE,140,2.0,5.0,13,0.00,,,0.00,VWS V14.01,2013-01-18 19:31:00,
2013-01-18 12:36:00,54.9,5.0,30.12,SSE,163,4.0,4.0,13,0.00,,,0.00,VWS V14.01,2013-01-18 19:36:00,
2013-01-18 12:41:00,55.5,5.5,30.12,South,169,2.0,6.0,13,0.00,,,0.00,VWS V14.01,2013-01-18 19:41:00,
2013-01-18 12:46:00,56.1,4.2,30.12,South,169,0.0,0.0,12,0.00,,,0.00,VWS V14.01,2013-01-18 19:46:00,
2013-01-18 12:51:00,57.1,5.0,30.11,SSW,213,5.0,6.0,12,0.00,,,0.00,VWS V14.01,2013-01-18 19:51:00,
2013-01-18 12:56:00,57.9,3.7,30.11,SSW,206,4.0,6.0,11,0.00,,,0.00,VWS V14.01,2013-01-18 19:56:00,
2013-01-18 13:01:00,58.5,2.1,30.11,West,270,4.0,6.0,10,0.00,,,0.00,VWS V14.01,2013-01-18 20:01:00,
2013-01-18 13:06:00,58.8,2.4,30.11,West,260,7.0,14.0,10,0.00,,,0.00,VWS V14.01,2013-01-18 20:06:00,
2013-01-18 13:11:00,58.6,2.2,30.10,West,274,4.0,7.0,10,0.00,,,0.00,VWS V14.01,2013-01-18 20:11:00,
2013-01-18 13:16:00,58.5,2.1,30.10,West,277,7.0,9.0,10,0.00,,,0.00,VWS V14.01,2013-01-18 20:16:00,
2013-01-18 13:21:00,58.4,4.1,30.10,WSW,254,4.0,5.0,11,0.00,,,0.00,VWS V14.01,2013-01-18 20:21:00,
2013-01-18 13:26:00,58.6,2.2,30.10,West,275,7.0,7.0,10,0.00,,,0.00,VWS V14.01,2013-01-18 20:26:00,
2013-01-18 13:31:00,58.4,2.1,30.10,West,280,7.0,9.0,10,0.00,,,0.00,VWS V14.01,2013-01-18 20:31:00,
2013-01-18 13:36:00,57.7,3.6,30.09,WSW,257,4.0,5.0,11,0.00,,,0.00,VWS V14.01,2013-01-18 20:36:00,
2013-01-18 13:41:00,57.8,3.7,30.09,West,279,10.0,12.0,11,0.00,,,0.00,VWS V14.01,2013-01-18 20:41:00,
2013-01-18 13:46:00,58.3,4.0,30.09,WNW,302,6.0,7.0,11,0.00,,,0.00,VWS V14.01,2013-01-18 20:46:00,
2013-01-18 13:51:00,58.5,2.1,30.09,West,268,5.0,5.0,10,0.00,,,0.00,VWS V14.01,2013-01-18 20:51:00,
2013-01-18 13:56:00,58.5,4.2,30.09,West,263,0.0,4.0,11,0.00,,,0.00,VWS V14.01,2013-01-18 20:56:00,
2013-01-18 14:01:00,59.0,4.6,30.09,NW,306,6.0,6.0,11,0.00,,,0.00,VWS V14.01,2013-01-18 21:01:00,
2013-01-18 14:06:00,58.8,2.4,30.09,WNW,287,7.0,8.0,10,0.00,,,0.00,VWS V14.01,2013-01-18 21:06:00,
2013-01-18 14:11:00,58.4,2.1,30.09,West,263,2.0,5.0,10,0.00,,,0.00,VWS V14.01,2013-01-18 21:11:00,
2013-01-18 14:16:00,58.4,2.1,30.09,West,265,5.0,5.0,10,0.00,,,0.00,VWS V14.01,2013-01-18 21:16:00,
2013-01-18 14:21:00,58.6,2.2,30.09,West,277,5.0,6.0,10,0.00,,,0.00,VWS V14.01,2013-01-18 21:21:00,
2013-01-18 14:26:00,58.4,2.1,30.09,West,267,5.0,6.0,10,0.00,,,0.00,VWS V14.01,2013-01-18 21:26:00,
2013-01-18 14:31:00,58.1,1.8,30.08,WNW,296,6.0,9.0,10,0.00,,,0.00,VWS V14.01,2013-01-18 21:31:00,
2013-01-18 14:36:00,58.1,3.9,30.09,West,276,5.0,5.0,11,0.00,,,0.00,VWS V14.01,2013-01-18 21:36:00,
2013-01-18 14:41:00,58.2,1.9,30.09,WNW,288,5.0,7.0,10,0.00,,,0.00,VWS V14.01,2013-01-18 21:41:00,
2013-01-18 14:46:00,58.1,1.8,30.09,NW,305,5.0,5.0,10,0.00,,,0.00,VWS V14.01,2013-01-18 21:46:00,
2013-01-18 14:51:00,58.1,1.8,30.08,West,281,3.0,4.0,10,0.00,,,0.00,VWS V14.01,2013-01-18 21:51:00,
2013-01-18 14:56:00,57.7,1.5,30.09,WNW,293,6.0,6.0,10,0.00,,,0.00,VWS V14.01,2013-01-18 21:56:00,
2013-01-18 15:01:00,57.5,1.4,30.08,WNW,282,11.0,13.0,10,0.00,,,0.00,VWS V14.01,2013-01-18 22:01:00,
2013-01-18 15:06:00,57.3,3.3,30.08,West,281,4.0,6.0,11,0.00,,,0.00,VWS V14.01,2013-01-18 22:06:00,
2013-01-18 15:11:00,57.3,3.3,30.08,WNW,284,6.0,9.0,11,0.00,,,0.00,VWS V14.01,2013-01-18 22:11:00,
2013-01-18 15:16:00,56.9,2.9,30.09,WNW,284,6.0,6.0,11,0.00,,,0.00,VWS V14.01,2013-01-18 22:16:00,
2013-01-18 15:21:00,56.7,2.8,30.09,West,273,8.0,10.0,11,0.00,,,0.00,VWS V14.01,2013-01-18 22:21:00,
2013-01-18 15:26:00,56.7,2.8,30.09,WSW,246,5.0,6.0,11,0.00,,,0.00,VWS V14.01,2013-01-18 22:26:00,
2013-01-18 15:31:00,56.3,2.5,30.09,West,269,6.0,11.0,11,0.00,,,0.00,VWS V14.01,2013-01-18 22:31:00,
2013-01-18 15:36:00,56.2,2.4,30.09,WSW,250,12.0,12.0,11,0.00,,,0.00,VWS V14.01,2013-01-18 22:36:00,
2013-01-18 15:41:00,56.2,4.3,30.09,WSW,250,4.0,9.0,12,0.00,,,0.00,VWS V14.01,2013-01-18 22:41:00,
2013-01-18 15:46:00,56.2,4.3,30.09,WSW,252,5.0,6.0,12,0.00,,,0.00,VWS V14.01,2013-01-18 22:46:00,
2013-01-18 15:51:00,56.2,2.4,30.09,West,263,3.0,5.0,11,0.00,,,0.00,VWS V14.01,2013-01-18 22:51:00,
2013-01-18 15:56:00,55.9,4.0,30.09,West,259,4.0,4.0,12,0.00,,,0.00,VWS V14.01,2013-01-18 22:56:00,
2013-01-18 16:01:00,55.7,2.0,30.09,West,259,2.0,4.0,11,0.00,,,0.00,VWS V14.01,2013-01-18 23:01:00,
2013-01-18 16:06:00,55.3,1.7,30.09,WNW,288,9.0,9.0,11,0.00,,,0.00,VWS V14.01,2013-01-18 23:06:00,
2013-01-18 16:11:00,54.5,2.9,30.09,West,280,1.0,2.0,12,0.00,,,0.00,VWS V14.01,2013-01-18 23:11:00,
2013-01-18 16:16:00,53.9,2.5,30.10,West,269,4.0,5.0,12,0.00,,,0.00,VWS V14.01,2013-01-18 23:16:00,
2013-01-18 16:21:00,53.5,2.2,30.09,West,277,5.0,6.0,12,0.00,,,0.00,VWS V14.01,2013-01-18 23:21:00,
2013-01-18 16:26:00,53.2,3.6,30.09,WNW,282,6.0,7.0,13,0.00,,,0.00,VWS V14.01,2013-01-18 23:26:00,
2013-01-18 16:31:00,52.8,3.3,30.09,West,276,4.0,6.0,13,0.00,,,0.00,VWS V14.01,2013-01-18 23:31:00,
2013-01-18 16:36:00,52.3,2.9,30.10,West,271,2.0,6.0,13,0.00,,,0.00,VWS V14.01,2013-01-18 23:36:00,
2013-01-18 16:41:00,51.9,4.2,30.10,West,268,0.0,2.0,14,0.00,,,0.00,VWS V14.01,2013-01-18 23:41:00,
2013-01-18 16:46:00,51.5,3.9,30.10,West,263,6.0,6.0,14,0.00,,,0.00,VWS V14.01,2013-01-18 23:46:00,
2013-01-18 16:51:00,51.1,3.6,30.10,WSW,257,4.0,8.0,14,0.00,,,0.00,VWS V14.01,2013-01-18 23:51:00,
2013-01-18 16:56:00,50.8,3.3,30.10,West,277,4.0,4.0,14,0.00,,,0.00,VWS V14.01,2013-01-18 23:56:00,
2013-01-18 17:01:00,50.4,3.0,30.10,West,268,3.0,3.0,14,0.00,,,0.00,VWS V14.01,2013-01-19 00:01:00,
2013-01-18 17:06:00,50.0,4.2,30.10,West,265,5.0,6.0,15,0.00,,,0.00,VWS V14.01,2013-01-19 00:06:00,
2013-01-18 17:11:00,49.6,3.9,30.10,WSW,252,5.0,5.0,15,0.00,,,0.00,VWS V14.01,2013-01-19 00:11:00,
2013-01-18 17:16:00,49.2,3.5,30.11,West,259,1.0,2.0,15,0.00,,,0.00,VWS V14.01,2013-01-19 00:16:00,
2013-01-18 17:21:00,48.7,4.5,30.10,West,259,5.0,5.0,16,0.00,,,0.00,VWS V14.01,2013-01-19 00:21:00,
2013-01-18 17:26:00,48.7,4.5,30.10,WSW,254,6.0,6.0,16,0.00,,,0.00,VWS V14.01,2013-01-19 00:26:00,
2013-01-18 17:31:00,48.5,4.4,30.11,West,260,4.0,6.0,16,0.00,,,0.00,VWS V14.01,2013-01-19 00:31:00,
2013-01-18 17:36:00,48.3,4.2,30.11,WSW,248,5.0,6.0,16,0.00,,,0.00,VWS V14.01,2013-01-19 00:36:00,
2013-01-18 17:41:00,47.9,3.9,30.11,WSW,251,2.0,2.0,16,0.00,,,0.00,VWS V14.01,2013-01-19 00:41:00,
2013-01-18 17:46:00,47.7,5.0,30.11,WSW,252,5.0,5.0,17,0.00,,,0.00,VWS V14.01,2013-01-19 00:46:00,
2013-01-18 17:51:00,47.5,4.9,30.11,WSW,244,4.0,4.0,17,0.00,,,0.00,VWS V14.01,2013-01-19 00:51:00,
2013-01-18 17:56:00,47.1,4.5,30.11,WSW,244,4.0,5.0,17,0.00,,,0.00,VWS V14.01,2013-01-19 00:56:00,
2013-01-18 18:01:00,46.9,4.4,30.11,WSW,250,2.0,5.0,17,0.00,,,0.00,VWS V14.01,2013-01-19 01:01:00,
2013-01-18 18:06:00,46.9,4.4,30.12,West,263,1.0,2.0,17,0.00,,,0.00,VWS V14.01,2013-01-19 01:06:00,
2013-01-18 18:11:00,46.8,4.3,30.11,West,263,6.0,6.0,17,0.00,,,0.00,VWS V14.01,2013-01-19 01:11:00,
2013-01-18 18:16:00,46.8,4.3,30.12,West,261,5.0,6.0,17,0.00,,,0.00,VWS V14.01,2013-01-19 01:16:00,
2013-01-18 18:21:00,46.7,4.2,30.12,West,275,1.0,2.0,17,0.00,,,0.00,VWS V14.01,2013-01-19 01:21:00,
2013-01-18 18:26:00,46.7,4.2,30.12,West,265,5.0,5.0,17,0.00,,,0.00,VWS V14.01,2013-01-19 01:26:00,
2013-01-18 18:31:00,46.6,4.1,30.12,WSW,257,6.0,6.0,17,0.00,,,0.00,VWS V14.01,2013-01-19 01:31:00,
2013-01-18 18:36:00,46.8,5.5,30.12,West,260,5.0,7.0,18,0.00,,,0.00,VWS V14.01,2013-01-19 01:36:00,
2013-01-18 18:41:00,46.6,5.4,30.12,West,277,6.0,6.0,18,0.00,,,0.00,VWS V14.01,2013-01-19 01:41:00,
2013-01-18 18:46:00,46.5,5.3,30.12,WSW,254,4.0,5.0,18,0.00,,,0.00,VWS V14.01,2013-01-19 01:46:00,
2013-01-18 18:51:00,46.5,5.3,30.12,WSW,256,2.0,2.0,18,0.00,,,0.00,VWS V14.01,2013-01-19 01:51:00,
2013-01-18 18:56:00,46.5,5.3,30.12,WSW,256,2.0,4.0,18,0.00,,,0.00,VWS V14.01,2013-01-19 01:56:00,
2013-01-18 19:01:00,46.5,5.3,30.12,WSW,256,3.0,5.0,18,0.00,,,0.00,VWS V14.01,2013-01-19 02:01:00,
2013-01-18 19:06:00,46.7,4.2,30.11,WSW,255,4.0,6.0,17,0.00,,,0.00,VWS V14.01,2013-01-19 02:06:00,
2013-01-18 19:11:00,46.9,4.4,30.11,WSW,246,5.0,10.0,17,0.00,,,0.00,VWS V14.01,2013-01-19 02:11:00,
2013-01-18 19:17:00,47.4,4.8,30.11,WSW,239,12.0,12.0,17,0.00,,,0.00,VWS V14.01,2013-01-19 02:17:00,
2013-01-18 19:22:00,47.4,3.5,30.11,WSW,253,4.0,7.0,16,0.00,,,0.00,VWS V14.01,2013-01-19 02:22:00,
2013-01-18 19:27:00,47.6,3.6,30.11,West,267,7.0,13.0,16,0.00,,,0.00,VWS V14.01,2013-01-19 02:27:00,
2013-01-18 19:32:00,47.6,3.6,30.10,West,259,9.0,11.0,16,0.00,,,0.00,VWS V14.01,2013-01-19 02:32:00,
2013-01-18 19:37:00,47.6,3.6,30.10,SW,236,6.0,9.0,16,0.00,,,0.00,VWS V14.01,2013-01-19 02:37:00,
2013-01-18 19:42:00,47.5,3.6,30.10,WSW,244,4.0,10.0,16,0.00,,,0.00,VWS V14.01,2013-01-19 02:42:00,
2013-01-18 19:47:00,47.5,3.6,30.10,WSW,254,5.0,5.0,16,0.00,,,0.00,VWS V14.01,2013-01-19 02:47:00,
2013-01-18 19:52:00,47.4,3.5,30.10,WSW,252,2.0,7.0,16,0.00,,,0.00,VWS V14.01,2013-01-19 02:52:00,
2013-01-18 19:57:00,47.4,3.5,30.10,WSW,253,4.0,6.0,16,0.00,,,0.00,VWS V14.01,2013-01-19 02:57:00,
2013-01-18 20:02:00,47.3,3.4,30.09,WSW,252,7.0,9.0,16,0.00,,,0.00,VWS V14.01,2013-01-19 03:02:00,
2013-01-18 20:07:00,47.2,3.3,30.09,WSW,252,6.0,8.0,16,0.00,,,0.00,VWS V14.01,2013-01-19 03:07:00,
2013-01-18 20:12:00,47.1,3.2,30.09,WSW,251,5.0,7.0,16,0.00,,,0.00,VWS V14.01,2013-01-19 03:12:00,
2013-01-18 20:17:00,46.9,3.1,30.09,WSW,251,4.0,6.0,16,0.00,,,0.00,VWS V14.01,2013-01-19 03:17:00,
2013-01-18 20:22:00,46.8,3.0,30.09,WSW,252,2.0,2.0,16,0.00,,,0.00,VWS V14.01,2013-01-19 03:22:00,
2013-01-18 20:27:00,46.5,2.7,30.09,WSW,252,2.0,2.0,16,0.00,,,0.00,VWS V14.01,2013-01-19 03:27:00,
2013-01-18 20:32:00,46.3,2.6,30.08,WSW,252,1.0,2.0,16,0.00,,,0.00,VWS V14.01,2013-01-19 03:32:00,
2013-01-18 20:37:00,46.1,3.7,30.08,WSW,250,5.0,7.0,17,0.00,,,0.00,VWS V14.01,2013-01-19 03:37:00,
2013-01-18 20:42:00,46.3,3.9,30.08,WSW,254,4.0,5.0,17,0.00,,,0.00,VWS V14.01,2013-01-19 03:42:00,
2013-01-18 20:47:00,46.4,2.7,30.08,SW,220,5.0,6.0,16,0.00,,,0.00,VWS V14.01,2013-01-19 03:47:00,
2013-01-18 20:52:00,46.6,2.8,30.08,West,273,5.0,8.0,16,0.00,,,0.00,VWS V14.01,2013-01-19 03:52:00,
2013-01-18 20:57:00,46.9,3.1,30.08,WSW,255,7.0,7.0,16,0.00,,,0.00,VWS V14.01,2013-01-19 03:57:00,
2013-01-18 21:02:00,46.9,3.1,30.08,West,265,2.0,7.0,16,0.00,,,0.00,VWS V14.01,2013-01-19 04:02:00,
2013-01-18 21:07:00,46.8,3.0,30.08,West,265,4.0,5.0,16,0.00,,,0.00,VWS V14.01,2013-01-19 04:07:00,
2013-01-18 21:12:00,46.4,2.7,30.09,West,265,1.0,5.0,16,0.00,,,0.00,VWS V14.01,2013-01-19 04:12:00,
2013-01-18 21:17:00,46.3,2.6,30.09,West,263,6.0,10.0,16,0.00,,,0.00,VWS V14.01,2013-01-19 04:17:00,
2013-01-18 21:22:00,46.6,2.8,30.08,WSW,245,8.0,8.0,16,0.00,,,0.00,VWS V14.01,2013-01-19 04:22:00,
2013-01-18 21:27:00,46.7,2.9,30.08,WSW,252,8.0,8.0,16,0.00,,,0.00,VWS V14.01,2013-01-19 04:27:00,
2013-01-18 21:32:00,46.7,2.9,30.08,WSW,253,1.0,5.0,16,0.00,,,0.00,VWS V14.01,2013-01-19 04:32:00,
2013-01-18 21:37:00,46.5,2.7,30.08,WSW,254,4.0,6.0,16,0.00,,,0.00,VWS V14.01,2013-01-19 04:37:00,
2013-01-18 21:42:00,46.8,3.0,30.08,West,263,1.0,6.0,16,0.00,,,0.00,VWS V14.01,2013-01-19 04:42:00,
2013-01-18 21:47:00,46.8,3.0,30.08,WSW,258,1.0,6.0,16,0.00,,,0.00,VWS V14.01,2013-01-19 04:47:00,
2013-01-18 21:52:00,46.5,2.7,30.08,WSW,258,1.0,4.0,16,0.00,,,0.00,VWS V14.01,2013-01-19 04:52:00,
2013-01-18 21:57:00,46.6,2.8,30.08,WSW,242,4.0,9.0,16,0.00,,,0.00,VWS V14.01,2013-01-19 04:57:00,
2013-01-18 22:01:00,46.8,3.0,30.08,West,259,12.0,12.0,16,0.00,,,0.00,VWS V14.01,2013-01-19 05:01:00,
2013-01-18 22:02:00,47.0,3.2,30.08,WSW,249,8.0,8.0,16,0.00,,,0.00,VWS V14.01,2013-01-19 05:02:00,
2013-01-18 22:07:00,47.7,3.7,30.07,WSW,249,7.0,12.0,16,0.00,,,0.00,VWS V14.01,2013-01-19 05:07:00,
2013-01-18 22:12:00,47.8,2.4,30.07,WSW,246,4.0,11.0,15,0.00,,,0.00,VWS V14.01,2013-01-19 05:12:00,
2013-01-18 22:17:00,47.7,2.3,30.07,West,262,10.0,13.0,15,0.00,,,0.00,VWS V14.01,2013-01-19 05:17:00,
2013-01-18 22:22:00,47.8,2.4,30.06,West,273,2.0,11.0,15,0.00,,,0.00,VWS V14.01,2013-01-19 05:22:00,
2013-01-18 22:27:00,47.7,2.3,30.07,West,259,8.0,10.0,15,0.00,,,0.00,VWS V14.01,2013-01-19 05:27:00,
2013-01-18 22:32:00,47.7,2.3,30.07,WSW,248,4.0,6.0,15,0.00,,,0.00,VWS V14.01,2013-01-19 05:32:00,
2013-01-18 22:37:00,47.6,2.2,30.06,West,273,4.0,5.0,15,0.00,,,0.00,VWS V14.01,2013-01-19 05:37:00,
2013-01-18 22:42:00,47.4,2.1,30.07,West,273,0.0,0.0,15,0.00,,,0.00,VWS V14.01,2013-01-19 05:42:00,
2013-01-18 22:47:00,47.2,3.3,30.07,West,273,0.0,2.0,16,0.00,,,0.00,VWS V14.01,2013-01-19 05:47:00,
2013-01-18 22:52:00,47.0,3.2,30.07,West,259,2.0,5.0,16,0.00,,,0.00,VWS V14.01,2013-01-19 05:52:00,
2013-01-18 22:57:00,47.2,3.3,30.06,WSW,254,4.0,8.0,16,0.00,,,0.00,VWS V14.01,2013-01-19 05:57:00,
2013-01-18 23:02:00,47.6,2.2,30.06,WSW,257,2.0,11.0,15,0.00,,,0.00,VWS V14.01,2013-01-19 06:02:00,
2013-01-18 23:07:00,47.9,2.5,30.06,WSW,248,0.0,2.0,15,0.00,,,0.00,VWS V14.01,2013-01-19 06:07:00,
2013-01-18 23:12:00,47.8,2.4,30.06,WSW,248,0.0,2.0,15,0.00,,,0.00,VWS V14.01,2013-01-19 06:12:00,
2013-01-18 23:17:00,47.4,2.1,30.06,WSW,248,0.0,0.0,15,0.00,,,0.00,VWS V14.01,2013-01-19 06:17:00,
2013-01-18 23:22:00,47.1,1.8,30.06,WSW,248,0.0,1.0,15,0.00,,,0.00,VWS V14.01,2013-01-19 06:22:00,
2013-01-18 23:27:00,46.8,1.6,30.06,WSW,248,2.0,4.0,15,0.00,,,0.00,VWS V14.01,2013-01-19 06:27:00,
2013-01-18 23:32:00,46.4,2.7,30.06,WSW,248,0.0,3.0,16,0.00,,,0.00,VWS V14.01,2013-01-19 06:32:00,
2013-01-18 23:37:00,46.3,2.6,30.06,NNE,14,10.0,10.0,16,0.00,,,0.00,VWS V14.01,2013-01-19 06:37:00,
2013-01-18 23:42:00,48.3,2.8,30.06,West,264,4.0,5.0,15,0.00,,,0.00,VWS V14.01,2013-01-19 06:42:00,
2013-01-18 23:47:00,49.2,2.0,30.06,WSW,246,5.0,7.0,14,0.00,,,0.00,VWS V14.01,2013-01-19 06:47:00,
2013-01-18 23:52:00,49.1,3.5,30.06,NE,38,1.0,5.0,15,0.00,,,0.00,VWS V14.01,2013-01-19 06:52:00,
2013-01-18 23:57:00,47.8,3.8,30.06,NE,38,1.0,1.0,16,0.00,,,0.00,VWS V14.01,2013-01-19 06:57:00,